ENBL/FDE METAR and TAF weather

Enter ICAO airport designator
Station Type Date Time Source
ENBL METAR 2021/10/20 06:20 UTC NOAA

ENBL 200620Z 22007KT 4000 2000E -RADZ VCFG FEW003 SCT005 BKN009 10/09 Q0980


Station Type Date Time Source
ENBL Decoded METAR 2021/10/20 06:20 UTC NOAA

Forde / Bringeland, Norway (ENBL) 61-27N 005-52E
Oct 20, 2021 - 02:20 AM EDT / 2021.10.20 0620 UTC
Wind: from the SW (220 degrees) at 8 MPH (7 KT):0
Visibility: 2 mile(s):0
Sky conditions: mostly cloudy
Weather: light rain, drizzle; fog in the vicinity
Temperature: 50 F (10 C)
Dew Point: 48 F (9 C)
Relative Humidity: 93%
Pressure (altimeter): 28.94 in. Hg (0980 hPa)
ob: ENBL 200620Z 22007KT 4000 2000E -RADZ VCFG FEW003 SCT005 BKN009 10/09 Q0980
cycle: 6

Station Type Date Time Source
ENBL TAF UTC NOAA

Error!

Example: see airport list